Time;durP1;ratioP1;P1;durP2;ratioP2;P2;SDS_P1;SDS_P2;PMS_P1;PMS_P2;Temp;Humidity;BMP_temperature;BMP_pressure;BME280_temperature;BME280_humidity;BME280_pressure;Samples;Min_cycle;Max_cycle;Signal;HPM_P1;HPM_P2
2022/06/29 00:01:37;;;;;;;3.77;2.70;;;;;;;;;;5115383;28;20475;-66
2022/06/29 00:04:04;;;;;;;3.50;3.20;;;;;;;;;;5115620;28;20476;-66
2022/06/29 00:06:31;;;;;;;4.87;3.07;;;;;;;;;;5115462;28;20531;-66
2022/06/29 00:08:58;;;;;;;3.47;3.17;;;;;;;;;;5114912;28;20450;-66
2022/06/29 00:11:25;;;;;;;3.30;3.00;;;;;;;;;;5115375;28;20624;-66
2022/06/29 00:13:53;;;;;;;6.47;2.77;;;;;;;;;;5114904;28;20462;-66
2022/06/29 00:16:21;;;;;;;6.00;3.23;;;;;;;;;;5115047;28;20440;-66
2022/06/29 00:18:49;;;;;;;4.20;3.23;;;;;;;;;;5114786;28;20518;-67
2022/06/29 00:21:16;;;;;;;5.90;3.23;;;;;;;;;;5114932;28;20471;-66
2022/06/29 00:23:43;;;;;;;4.70;3.20;;;;;;;;;;5114689;28;20998;-66
2022/06/29 00:26:10;;;;;;;3.43;3.10;;;;;;;;;;5114841;28;20436;-67
2022/06/29 00:28:37;;;;;;;4.57;2.73;;;;;;;;;;5114627;28;20442;-68
2022/06/29 00:31:05;;;;;;;3.40;2.80;;;;;;;;;;5114888;28;20518;-67
2022/06/29 00:33:33;;;;;;;3.33;3.13;;;;;;;;;;5114873;28;20435;-67
2022/06/29 00:36:01;;;;;;;2.60;2.40;;;;;;;;;;5114738;28;20526;-67
2022/06/29 00:38:28;;;;;;;4.73;3.13;;;;;;;;;;5114902;28;20478;-67
2022/06/29 00:40:55;;;;;;;4.07;3.03;;;;;;;;;;5114590;28;20498;-67
2022/06/29 00:43:24;;;;;;;4.27;3.20;;;;;;;;;;5114652;28;20451;-67
2022/06/29 00:45:51;;;;;;;4.37;3.10;;;;;;;;;;5114527;28;20538;-66
2022/06/29 00:48:19;;;;;;;4.20;3.20;;;;;;;;;;5115029;28;20489;-66
2022/06/29 00:50:47;;;;;;;3.60;3.30;;;;;;;;;;5114216;28;20833;-66
2022/06/29 00:53:16;;;;;;;4.40;4.00;;;;;;;;;;5114153;28;20473;-66
2022/06/29 00:55:43;;;;;;;3.60;3.20;;;;;;;;;;5114038;28;20961;-67
2022/06/29 00:58:11;;;;;;;3.43;3.20;;;;;;;;;;5114145;28;20533;-67
2022/06/29 01:00:39;;;;;;;3.40;3.10;;;;;;;;;;5114250;28;20864;-66
2022/06/29 01:03:07;;;;;;;3.93;3.63;;;;;;;;;;5114746;28;20506;-66
2022/06/29 01:05:34;;;;;;;3.77;3.40;;;;;;;;;;5114776;28;20478;-67
2022/06/29 01:08:03;;;;;;;4.43;4.03;;;;;;;;;;5114484;28;20499;-66
2022/06/29 01:10:30;;;;;;;4.17;3.77;;;;;;;;;;5113258;28;20627;-66
2022/06/29 01:12:57;;;;;;;3.87;3.57;;;;;;;;;;5113864;28;20486;-66
2022/06/29 01:15:25;;;;;;;4.33;3.90;;;;;;;;;;5114296;28;20470;-66
2022/06/29 01:17:52;;;;;;;6.83;4.20;;;;;;;;;;5114514;28;20535;-67
2022/06/29 01:20:19;;;;;;;3.80;3.40;;;;;;;;;;5114047;28;20533;-67
2022/06/29 01:22:48;;;;;;;4.30;3.93;;;;;;;;;;5114134;28;20467;-67
2022/06/29 01:25:15;;;;;;;3.83;3.47;;;;;;;;;;5113934;28;20466;-66
2022/06/29 01:27:42;;;;;;;4.67;4.27;;;;;;;;;;5114430;28;20876;-66
2022/06/29 01:30:10;;;;;;;3.83;3.53;;;;;;;;;;5114210;28;20450;-66
2022/06/29 01:32:38;;;;;;;3.70;3.30;;;;;;;;;;5113674;28;20537;-66
2022/06/29 01:35:06;;;;;;;4.67;4.20;;;;;;;;;;5114395;28;20535;-66
2022/06/29 01:37:33;;;;;;;4.57;4.17;;;;;;;;;;5113934;28;20439;-66
2022/06/29 01:40:02;;;;;;;4.10;3.80;;;;;;;;;;5113761;28;20533;-66
2022/06/29 01:42:29;;;;;;;4.77;4.30;;;;;;;;;;5113764;28;20567;-66
2022/06/29 01:44:56;;;;;;;4.43;4.03;;;;;;;;;;5113619;28;20995;-65
2022/06/29 01:47:24;;;;;;;4.30;3.63;;;;;;;;;;5113424;28;20533;-66
2022/06/29 01:49:51;;;;;;;4.97;4.10;;;;;;;;;;5113753;28;20527;-67
2022/06/29 01:52:18;;;;;;;4.30;3.90;;;;;;;;;;5113834;28;20788;-67
2022/06/29 01:54:46;;;;;;;5.93;4.37;;;;;;;;;;5113495;28;20533;-66
2022/06/29 01:57:14;;;;;;;3.90;3.60;;;;;;;;;;5113353;28;20531;-66
2022/06/29 01:59:41;;;;;;;6.10;3.47;;;;;;;;;;5113439;28;20535;-66
2022/06/29 02:02:09;;;;;;;4.10;3.67;;;;;;;;;;5113584;28;20475;-66
2022/06/29 02:04:36;;;;;;;4.30;4.00;;;;;;;;;;5113696;28;20859;-66
2022/06/29 02:07:03;;;;;;;3.90;3.60;;;;;;;;;;5113568;28;20467;-66
2022/06/29 02:09:31;;;;;;;4.43;3.80;;;;;;;;;;5113686;28;20836;-66
2022/06/29 02:11:58;;;;;;;8.07;4.63;;;;;;;;;;5113237;28;20483;-66
2022/06/29 02:14:26;;;;;;;9.60;4.60;;;;;;;;;;5114450;28;20478;-66
2022/06/29 02:16:54;;;;;;;5.20;4.60;;;;;;;;;;5113293;28;20541;-66
2022/06/29 02:19:21;;;;;;;5.20;4.70;;;;;;;;;;5113211;28;20884;-66
2022/06/29 02:21:48;;;;;;;5.30;4.90;;;;;;;;;;5114879;28;20471;-66
2022/06/29 02:24:15;;;;;;;10.33;5.03;;;;;;;;;;5117046;28;20512;-66
2022/06/29 02:26:42;;;;;;;4.77;4.47;;;;;;;;;;5117418;28;20530;-66
2022/06/29 02:29:10;;;;;;;5.17;4.67;;;;;;;;;;5117317;28;20841;-66
2022/06/29 02:37:08;;;;;;;5.23;4.43;;;;;;;;;;5117245;28;20419;-67
2022/06/29 02:39:35;;;;;;;5.27;4.77;;;;;;;;;;5117037;28;20434;-66
2022/06/29 02:42:02;;;;;;;4.23;3.73;;;;;;;;;;5117255;28;20902;-66
2022/06/29 02:44:29;;;;;;;6.33;4.23;;;;;;;;;;5116874;28;20530;-66
2022/06/29 02:46:58;;;;;;;4.87;4.53;;;;;;;;;;5116952;28;20844;-66
2022/06/29 02:49:25;;;;;;;5.00;4.70;;;;;;;;;;5116371;28;20446;-66
2022/06/29 02:51:53;;;;;;;5.70;4.30;;;;;;;;;;5117274;28;20522;-66
2022/06/29 02:54:20;;;;;;;4.70;4.30;;;;;;;;;;5116748;28;20795;-66
2022/06/29 02:56:47;;;;;;;5.83;4.47;;;;;;;;;;5116629;28;20444;-66
2022/06/29 02:59:14;;;;;;;4.60;4.27;;;;;;;;;;5116695;28;20855;-66
2022/06/29 03:01:41;;;;;;;4.30;4.00;;;;;;;;;;5116816;28;20449;-66
2022/06/29 03:04:10;;;;;;;5.03;4.63;;;;;;;;;;5116593;28;20449;-66
2022/06/29 03:06:37;;;;;;;5.03;3.70;;;;;;;;;;5116385;28;20439;-65
2022/06/29 03:09:05;;;;;;;5.10;4.10;;;;;;;;;;5116391;28;20451;-65
2022/06/29 03:11:32;;;;;;;6.10;5.30;;;;;;;;;;5116372;28;20471;-66
2022/06/29 03:14:00;;;;;;;5.23;4.73;;;;;;;;;;5116044;28;20533;-65
2022/06/29 03:16:27;;;;;;;5.20;4.70;;;;;;;;;;5116211;28;20450;-66
2022/06/29 03:18:54;;;;;;;6.63;4.60;;;;;;;;;;5116044;28;20439;-66
2022/06/29 03:21:22;;;;;;;6.67;4.30;;;;;;;;;;5116229;28;20442;-66
2022/06/29 03:23:50;;;;;;;7.53;5.20;;;;;;;;;;5115775;28;20478;-66
2022/06/29 03:26:17;;;;;;;5.43;4.80;;;;;;;;;;5115796;28;20541;-66
2022/06/29 03:28:45;;;;;;;5.53;4.27;;;;;;;;;;5116027;28;20443;-66
2022/06/29 03:31:12;;;;;;;6.40;4.50;;;;;;;;;;5115855;28;20449;-66
2022/06/29 03:33:40;;;;;;;4.97;4.47;;;;;;;;;;5114633;28;20477;-66
2022/06/29 03:36:08;;;;;;;4.97;4.33;;;;;;;;;;5115741;28;20453;-66
2022/06/29 03:38:37;;;;;;;5.67;4.67;;;;;;;;;;5115444;28;20515;-66
2022/06/29 03:41:04;;;;;;;5.07;4.57;;;;;;;;;;5116576;28;20526;-66
2022/06/29 03:43:31;;;;;;;4.70;4.30;;;;;;;;;;5115636;28;20466;-66
2022/06/29 03:45:58;;;;;;;5.77;4.93;;;;;;;;;;5115373;28;20942;-70
2022/06/29 03:48:26;;;;;;;5.73;5.20;;;;;;;;;;5115330;28;20485;-66
2022/06/29 03:50:53;;;;;;;5.97;4.50;;;;;;;;;;5115769;28;21027;-66
2022/06/29 03:53:20;;;;;;;8.60;4.73;;;;;;;;;;5115522;28;20445;-66
2022/06/29 03:55:48;;;;;;;7.03;4.33;;;;;;;;;;5115739;28;20441;-65
2022/06/29 03:58:16;;;;;;;6.10;4.20;;;;;;;;;;5114908;28;20439;-65
2022/06/29 04:00:43;;;;;;;6.03;4.30;;;;;;;;;;5115407;28;20453;-66
2022/06/29 04:03:10;;;;;;;4.37;4.00;;;;;;;;;;5130561;27;20901;-66
2022/06/29 04:05:37;;;;;;;4.73;4.30;;;;;;;;;;5134555;27;20445;-67
2022/06/29 04:08:05;;;;;;;4.77;4.37;;;;;;;;;;5134528;27;20442;-66
2022/06/29 04:10:32;;;;;;;5.50;4.53;;;;;;;;;;5134916;27;20873;-65
2022/06/29 04:13:01;;;;;;;5.27;4.73;;;;;;;;;;5134574;27;20446;-66
2022/06/29 04:15:28;;;;;;;7.07;4.13;;;;;;;;;;5135407;27;20831;-66
2022/06/29 04:17:55;;;;;;;4.57;4.20;;;;;;;;;;5134523;27;20543;-66
2022/06/29 04:23:07;;;;;;;5.00;4.10;;;;;;;;;;5135317;27;20535;-66
2022/06/29 04:25:34;;;;;;;4.30;3.83;;;;;;;;;;5135290;27;20534;-66
2022/06/29 04:28:03;;;;;;;4.20;3.80;;;;;;;;;;5135567;27;20521;-66
2022/06/29 04:30:30;;;;;;;4.60;4.13;;;;;;;;;;5135648;27;20446;-66
2022/06/29 04:32:57;;;;;;;4.93;4.20;;;;;;;;;;5134758;27;20538;-66
2022/06/29 04:35:24;;;;;;;4.00;3.70;;;;;;;;;;5135031;27;20772;-66
2022/06/29 04:37:52;;;;;;;4.50;3.93;;;;;;;;;;5134734;27;20481;-66
2022/06/29 04:40:19;;;;;;;4.23;3.67;;;;;;;;;;5134672;27;20431;-66
2022/06/29 04:42:46;;;;;;;8.20;3.83;;;;;;;;;;5134998;27;20557;-66
2022/06/29 04:47:59;;;;;;;5.20;4.57;;;;;;;;;;5134104;27;20429;-66
2022/06/29 04:50:26;;;;;;;5.90;4.13;;;;;;;;;;5135086;27;20509;-66
2022/06/29 04:52:53;;;;;;;5.73;3.67;;;;;;;;;;5134859;27;20521;-66
2022/06/29 04:55:21;;;;;;;3.90;3.50;;;;;;;;;;5134349;27;20451;-66
2022/06/29 04:57:48;;;;;;;5.87;5.30;;;;;;;;;;5134086;27;20528;-66
2022/06/29 05:00:17;;;;;;;4.10;3.77;;;;;;;;;;5134555;27;20535;-66
2022/06/29 05:02:44;;;;;;;5.43;3.80;;;;;;;;;;5134922;27;20487;-65
2022/06/29 05:05:11;;;;;;;6.40;3.30;;;;;;;;;;5134737;27;20874;-67
2022/06/29 05:07:38;;;;;;;3.50;3.20;;;;;;;;;;5135215;27;20780;-66
2022/06/29 05:10:06;;;;;;;3.60;3.30;;;;;;;;;;5134673;27;20480;-66
2022/06/29 05:12:34;;;;;;;6.03;3.33;;;;;;;;;;5134621;27;20477;-66
2022/06/29 05:15:01;;;;;;;4.13;3.13;;;;;;;;;;5134077;27;20525;-66
2022/06/29 05:17:36;;;;;;;4.03;3.10;;;;;;;;;;5134576;27;20533;-66
2022/06/29 05:20:03;;;;;;;4.93;3.20;;;;;;;;;;5134600;27;20454;-67
2022/06/29 05:22:30;;;;;;;3.70;3.30;;;;;;;;;;5134548;27;20502;-67
2022/06/29 05:24:57;;;;;;;4.17;3.23;;;;;;;;;;5134221;27;20528;-67
2022/06/29 05:27:25;;;;;;;4.77;3.23;;;;;;;;;;5134616;28;20448;-67
2022/06/29 05:29:52;;;;;;;4.83;3.40;;;;;;;;;;5134538;28;20885;-67
2022/06/29 05:32:19;;;;;;;10.37;4.30;;;;;;;;;;5134081;28;20471;-67
2022/06/29 05:34:48;;;;;;;7.70;3.97;;;;;;;;;;5134401;28;20538;-67
2022/06/29 05:37:15;;;;;;;4.57;3.53;;;;;;;;;;5134465;28;20496;-68
2022/06/29 05:39:44;;;;;;;3.40;3.10;;;;;;;;;;5134347;28;20526;-67
2022/06/29 05:42:13;;;;;;;6.60;4.20;;;;;;;;;;5134090;28;20472;-67
2022/06/29 05:44:40;;;;;;;8.90;4.10;;;;;;;;;;5134396;28;20819;-67
2022/06/29 05:47:08;;;;;;;7.97;4.90;;;;;;;;;;5133969;28;20439;-67
2022/06/29 05:49:36;;;;;;;4.33;3.93;;;;;;;;;;5134634;27;20540;-67
2022/06/29 05:52:05;;;;;;;3.30;2.87;;;;;;;;;;5134526;28;20455;-67
2022/06/29 05:54:32;;;;;;;4.03;3.30;;;;;;;;;;5134248;28;20530;-68
2022/06/29 05:56:59;;;;;;;6.87;3.10;;;;;;;;;;5135760;27;20439;-68
2022/06/29 05:59:27;;;;;;;3.37;2.80;;;;;;;;;;5137991;27;20445;-67
2022/06/29 06:01:54;;;;;;;3.60;3.03;;;;;;;;;;5138092;27;20530;-68
2022/06/29 06:04:21;;;;;;;4.80;3.20;;;;;;;;;;5137821;27;20511;-67
2022/06/29 06:06:48;;;;;;;8.10;5.87;;;;;;;;;;5137942;27;20468;-68
2022/06/29 06:09:21;;;;;;;10.33;3.97;;;;;;;;;;5138130;27;20532;-67
2022/06/29 06:11:48;;;;;;;10.03;2.97;;;;;;;;;;5138233;27;20813;-68
2022/06/29 06:14:15;;;;;;;4.03;3.10;;;;;;;;;;5138370;27;20446;-68
2022/06/29 06:16:42;;;;;;;4.20;3.80;;;;;;;;;;5138161;27;20533;-69
2022/06/29 06:19:10;;;;;;;3.10;2.80;;;;;;;;;;5137830;27;20510;-68
2022/06/29 06:21:37;;;;;;;3.57;2.90;;;;;;;;;;5137998;27;20441;-67
2022/06/29 06:24:04;;;;;;;4.83;3.80;;;;;;;;;;5137795;27;20570;-66
2022/06/29 06:26:33;;;;;;;3.10;2.70;;;;;;;;;;5137555;27;20921;-67
2022/06/29 06:29:01;;;;;;;4.13;2.93;;;;;;;;;;5137841;27;20525;-67
2022/06/29 06:31:28;;;;;;;3.40;3.10;;;;;;;;;;5137671;27;20479;-67
2022/06/29 06:33:55;;;;;;;3.63;3.33;;;;;;;;;;5137636;27;20466;-67
2022/06/29 06:36:23;;;;;;;7.10;3.93;;;;;;;;;;5137554;27;20437;-67
2022/06/29 06:38:50;;;;;;;3.73;3.33;;;;;;;;;;5137605;27;20526;-67
2022/06/29 06:41:22;;;;;;;3.57;3.27;;;;;;;;;;5137503;27;20509;-67
2022/06/29 06:43:51;;;;;;;3.13;2.70;;;;;;;;;;5137731;27;20844;-67
2022/06/29 06:46:19;;;;;;;4.97;3.20;;;;;;;;;;5137394;27;20488;-67
2022/06/29 06:48:46;;;;;;;8.40;3.90;;;;;;;;;;5137111;27;20447;-67
2022/06/29 06:51:14;;;;;;;3.40;2.80;;;;;;;;;;5137719;27;20504;-67
2022/06/29 06:53:41;;;;;;;3.57;3.10;;;;;;;;;;5137384;27;20580;-68
2022/06/29 06:56:08;;;;;;;3.30;2.90;;;;;;;;;;5136837;27;21003;-67
2022/06/29 06:58:36;;;;;;;3.37;2.83;;;;;;;;;;5137273;27;20435;-67
2022/06/29 07:01:06;;;;;;;3.90;2.80;;;;;;;;;;5137139;27;20446;-68
2022/06/29 07:03:35;;;;;;;5.70;2.93;;;;;;;;;;5137120;27;20507;-68
2022/06/29 07:06:04;;;;;;;4.37;3.10;;;;;;;;;;5137029;27;20780;-67
2022/06/29 07:08:32;;;;;;;3.10;2.60;;;;;;;;;;5136969;27;20433;-68
2022/06/29 07:10:59;;;;;;;3.00;2.77;;;;;;;;;;5136900;27;20437;-67
2022/06/29 07:13:27;;;;;;;3.17;2.87;;;;;;;;;;5136690;27;20502;-68
2022/06/29 07:15:54;;;;;;;3.50;2.73;;;;;;;;;;5136725;27;20472;-68
2022/06/29 07:18:23;;;;;;;8.30;3.27;;;;;;;;;;5137309;27;20477;-68
2022/06/29 07:20:50;;;;;;;3.63;2.70;;;;;;;;;;5136727;27;20519;-68
2022/06/29 07:23:18;;;;;;;3.13;2.83;;;;;;;;;;5136716;27;20568;-69
2022/06/29 07:25:45;;;;;;;2.70;2.23;;;;;;;;;;5136577;27;20446;-69
2022/06/29 07:28:12;;;;;;;8.17;3.60;;;;;;;;;;5136409;27;20451;-69
2022/06/29 07:30:40;;;;;;;4.80;2.73;;;;;;;;;;5136495;27;20491;-69
2022/06/29 07:33:09;;;;;;;8.80;6.10;;;;;;;;;;5136560;27;20541;-69
2022/06/29 07:35:37;;;;;;;8.03;3.90;;;;;;;;;;5136458;27;20453;-68
2022/06/29 07:38:05;;;;;;;4.07;2.83;;;;;;;;;;5136719;27;20429;-68
2022/06/29 07:40:33;;;;;;;3.00;2.80;;;;;;;;;;5136119;27;20442;-69
2022/06/29 07:43:00;;;;;;;8.07;3.23;;;;;;;;;;5136002;27;20434;-69
2022/06/29 07:45:27;;;;;;;3.27;2.97;;;;;;;;;;5136282;27;20529;-69
2022/06/29 07:47:54;;;;;;;2.50;2.30;;;;;;;;;;5136132;27;20453;-68
2022/06/29 07:50:22;;;;;;;2.93;2.73;;;;;;;;;;5135771;27;20462;-69
2022/06/29 07:52:50;;;;;;;5.93;2.83;;;;;;;;;;5136120;27;20446;-69
2022/06/29 07:55:17;;;;;;;9.20;2.20;;;;;;;;;;5135665;27;20451;-68
2022/06/29 07:57:45;;;;;;;2.90;2.70;;;;;;;;;;5136275;27;20473;-68
2022/06/29 08:00:12;;;;;;;4.67;2.73;;;;;;;;;;5136100;27;20442;-69
2022/06/29 08:02:40;;;;;;;5.30;3.40;;;;;;;;;;5135844;27;20923;-68
2022/06/29 08:05:07;;;;;;;5.00;4.50;;;;;;;;;;5136271;27;20480;-69
2022/06/29 08:07:34;;;;;;;3.13;2.90;;;;;;;;;;5135587;27;20437;-68
2022/06/29 08:10:03;;;;;;;5.07;2.90;;;;;;;;;;5135836;27;20443;-69
2022/06/29 08:12:31;;;;;;;3.10;2.80;;;;;;;;;;5135769;27;20839;-69
2022/06/29 08:14:58;;;;;;;8.47;3.30;;;;;;;;;;5135100;27;20936;-68
2022/06/29 08:17:25;;;;;;;5.90;2.83;;;;;;;;;;5135956;27;20536;-68
2022/06/29 08:19:52;;;;;;;10.50;2.83;;;;;;;;;;5135672;27;20991;-68
2022/06/29 08:22:20;;;;;;;4.67;3.20;;;;;;;;;;5135593;27;20533;-68
2022/06/29 08:24:47;;;;;;;4.07;3.03;;;;;;;;;;5135519;27;20466;-68
2022/06/29 08:27:15;;;;;;;4.60;2.77;;;;;;;;;;5135437;27;20498;-69
2022/06/29 08:29:43;;;;;;;3.77;3.10;;;;;;;;;;5135554;27;20462;-68
2022/06/29 08:32:10;;;;;;;3.10;2.80;;;;;;;;;;5135649;27;20450;-68
2022/06/29 08:34:38;;;;;;;6.10;3.33;;;;;;;;;;5135455;27;20444;-68
2022/06/29 08:37:06;;;;;;;5.63;2.70;;;;;;;;;;5135493;27;20441;-68
2022/06/29 08:39:33;;;;;;;3.33;3.03;;;;;;;;;;5135014;27;20492;-69
2022/06/29 08:42:03;;;;;;;6.67;4.07;;;;;;;;;;5135800;27;20434;-68
2022/06/29 08:44:33;;;;;;;6.77;3.93;;;;;;;;;;5135076;27;20507;-68
2022/06/29 08:47:01;;;;;;;6.43;3.17;;;;;;;;;;5135372;27;20796;-68
2022/06/29 08:49:29;;;;;;;5.50;3.40;;;;;;;;;;5134920;27;20474;-68
2022/06/29 08:51:57;;;;;;;4.20;3.30;;;;;;;;;;5135113;27;20437;-68
2022/06/29 08:54:25;;;;;;;9.23;2.70;;;;;;;;;;5134991;27;20473;-68
2022/06/29 08:56:53;;;;;;;7.40;3.30;;;;;;;;;;5135233;27;20426;-68
2022/06/29 08:59:22;;;;;;;8.97;4.03;;;;;;;;;;5134659;27;20453;-69
2022/06/29 09:01:51;;;;;;;8.60;3.70;;;;;;;;;;5134782;27;20958;-68
2022/06/29 09:04:19;;;;;;;5.10;3.57;;;;;;;;;;5134517;27;20535;-68
2022/06/29 09:06:46;;;;;;;6.73;3.57;;;;;;;;;;5135164;27;20449;-68
2022/06/29 09:09:14;;;;;;;3.77;3.43;;;;;;;;;;5134491;27;20524;-68
2022/06/29 09:11:43;;;;;;;4.43;2.70;;;;;;;;;;5134872;27;20481;-68
2022/06/29 09:14:12;;;;;;;8.80;3.40;;;;;;;;;;5134451;27;20485;-68
2022/06/29 09:16:54;;;;;;;6.80;3.40;;;;;;;;;;5134859;27;20850;-69
2022/06/29 09:19:21;;;;;;;6.70;3.20;;;;;;;;;;5135143;27;20567;-69
2022/06/29 09:21:49;;;;;;;8.33;3.77;;;;;;;;;;5134743;27;20465;-68
2022/06/29 09:24:17;;;;;;;4.43;3.10;;;;;;;;;;5134829;27;20482;-68
2022/06/29 09:26:44;;;;;;;4.57;4.13;;;;;;;;;;5134561;27;20987;-68
2022/06/29 09:29:20;;;;;;;6.77;3.40;;;;;;;;;;5135313;28;20444;-68
2022/06/29 09:32:07;;;;;;;6.83;3.20;;;;;;;;;;5133326;27;20426;-68
2022/06/29 09:34:35;;;;;;;4.03;3.60;;;;;;;;;;5134562;28;20446;-68
2022/06/29 09:37:03;;;;;;;3.97;3.50;;;;;;;;;;5134426;28;20442;-68
2022/06/29 09:39:33;;;;;;;5.50;3.57;;;;;;;;;;5134622;28;20488;-69
2022/06/29 09:42:01;;;;;;;6.30;3.30;;;;;;;;;;5134692;28;20485;-68
2022/06/29 09:44:28;;;;;;;12.27;6.77;;;;;;;;;;5134012;28;20513;-68
2022/06/29 09:46:58;;;;;;;10.80;5.63;;;;;;;;;;5134044;28;20549;-68
2022/06/29 09:49:26;;;;;;;7.70;4.07;;;;;;;;;;5134159;27;20518;-68
2022/06/29 09:51:55;;;;;;;3.73;3.43;;;;;;;;;;5134861;28;20510;-68
2022/06/29 09:54:24;;;;;;;4.43;3.33;;;;;;;;;;5134856;28;20764;-68
2022/06/29 09:56:51;;;;;;;6.57;5.53;;;;;;;;;;5134614;28;20496;-68
2022/06/29 09:59:22;;;;;;;4.13;3.83;;;;;;;;;;5134205;28;20436;-68
2022/06/29 10:04:36;;;;;;;4.53;3.70;;;;;;;;;;5134185;28;21017;-68
2022/06/29 10:07:05;;;;;;;4.23;3.83;;;;;;;;;;5134731;28;20523;-68
2022/06/29 10:09:33;;;;;;;4.13;3.73;;;;;;;;;;5134200;28;20476;-67
2022/06/29 10:14:52;;;;;;;8.97;4.30;;;;;;;;;;5134137;28;20477;-67
2022/06/29 10:17:24;;;;;;;6.30;4.57;;;;;;;;;;5133991;28;20445;-67
2022/06/29 10:19:59;;;;;;;4.10;3.80;;;;;;;;;;5133811;28;20987;-67
2022/06/29 10:22:29;;;;;;;3.93;3.70;;;;;;;;;;5134163;28;20892;-67
2022/06/29 10:25:03;;;;;;;8.90;3.93;;;;;;;;;;5133608;28;20474;-68
2022/06/29 10:27:31;;;;;;;4.20;3.90;;;;;;;;;;5133880;28;20428;-68
2022/06/29 10:30:25;;;;;;;6.83;4.03;;;;;;;;;;5134273;28;20515;-68
2022/06/29 10:32:52;;;;;;;5.50;4.10;;;;;;;;;;5074461;28;20481;-67
2022/06/29 10:35:26;;;;;;;6.93;4.33;;;;;;;;;;5133600;28;20485;-68
2022/06/29 10:37:53;;;;;;;6.30;4.10;;;;;;;;;;5133924;28;20427;-67
2022/06/29 10:40:22;;;;;;;3.73;3.40;;;;;;;;;;5134060;28;20519;-67
2022/06/29 10:45:40;;;;;;;4.10;3.77;;;;;;;;;;5137315;27;20453;-67
2022/06/29 10:48:17;;;;;;;8.20;4.33;;;;;;;;;;5137801;27;20453;-67
2022/06/29 10:50:46;;;;;;;11.87;5.13;;;;;;;;;;5137657;27;20475;-67
2022/06/29 10:53:14;;;;;;;10.20;4.60;;;;;;;;;;5136991;27;20517;-68
2022/06/29 10:55:42;;;;;;;5.70;4.33;;;;;;;;;;5137341;27;20501;-67
2022/06/29 10:58:10;;;;;;;5.73;4.23;;;;;;;;;;5137147;27;20469;-68
2022/06/29 11:00:39;;;;;;;4.87;4.13;;;;;;;;;;5137267;27;20867;-68
2022/06/29 11:03:25;;;;;;;6.50;5.07;;;;;;;;;;5137053;27;20430;-68
2022/06/29 11:16:57;;;;;;;13.87;4.47;;;;;;;;;;5136705;27;20458;-68
2022/06/29 11:19:30;;;;;;;5.70;3.83;;;;;;;;;;5136844;27;20442;-68
2022/06/29 11:22:17;;;;;;;8.80;4.53;;;;;;;;;;5137319;27;20449;-68
2022/06/29 11:24:51;;;;;;;6.47;4.20;;;;;;;;;;5136556;27;21033;-68
2022/06/29 11:27:35;;;;;;;9.23;5.03;;;;;;;;;;5137266;27;20442;-68
2022/06/29 11:30:02;;;;;;;6.63;4.27;;;;;;;;;;5136353;27;20437;-68
2022/06/29 11:32:39;;;;;;;7.90;4.90;;;;;;;;;;5136321;27;20529;-68
2022/06/29 11:35:07;;;;;;;13.20;5.33;;;;;;;;;;5136532;27;20450;-68
2022/06/29 11:37:36;;;;;;;5.77;4.50;;;;;;;;;;5136645;27;20525;-68
2022/06/29 11:40:03;;;;;;;8.50;4.07;;;;;;;;;;5136463;27;20412;-68
2022/06/29 11:45:16;;;;;;;5.50;4.53;;;;;;;;;;5136308;27;20433;-68
2022/06/29 11:47:51;;;;;;;6.90;5.40;;;;;;;;;;5135974;27;20516;-68
2022/06/29 11:50:18;;;;;;;7.20;4.83;;;;;;;;;;5135925;27;20469;-67
2022/06/29 11:52:48;;;;;;;4.87;4.43;;;;;;;;;;5136395;27;20462;-66
2022/06/29 11:55:15;;;;;;;5.00;4.60;;;;;;;;;;5135033;27;20434;-67
2022/06/29 11:57:42;;;;;;;4.30;3.90;;;;;;;;;;5136117;27;20522;-67
2022/06/29 12:00:11;;;;;;;5.17;4.50;;;;;;;;;;5135906;27;20479;-68
2022/06/29 12:02:39;;;;;;;12.87;4.93;;;;;;;;;;5135696;27;20446;-67
2022/06/29 12:05:06;;;;;;;5.40;4.77;;;;;;;;;;5136009;27;20507;-67
2022/06/29 12:07:33;;;;;;;7.47;4.77;;;;;;;;;;5135908;27;20496;-67
2022/06/29 12:10:02;;;;;;;5.57;5.03;;;;;;;;;;5135907;27;20453;-68
2022/06/29 12:12:30;;;;;;;17.53;5.13;;;;;;;;;;5135655;27;20789;-68
2022/06/29 12:14:57;;;;;;;4.60;4.20;;;;;;;;;;5135960;27;20412;-68
2022/06/29 12:17:24;;;;;;;5.20;4.70;;;;;;;;;;5135979;27;20445;-67
2022/06/29 12:19:51;;;;;;;5.13;4.73;;;;;;;;;;5135645;27;20500;-67
2022/06/29 12:22:19;;;;;;;6.27;5.67;;;;;;;;;;5136323;27;20520;-67
2022/06/29 12:24:47;;;;;;;4.60;4.30;;;;;;;;;;5135136;27;20484;-67
2022/06/29 12:27:15;;;;;;;8.10;5.27;;;;;;;;;;5135677;27;20999;-67
2022/06/29 12:29:42;;;;;;;6.80;5.50;;;;;;;;;;5135387;27;20421;-67
2022/06/29 12:32:10;;;;;;;5.70;4.77;;;;;;;;;;5135205;27;20941;-67
2022/06/29 12:34:40;;;;;;;5.63;5.13;;;;;;;;;;5135043;27;20961;-67
2022/06/29 12:37:08;;;;;;;7.90;5.63;;;;;;;;;;5135369;27;20438;-67
2022/06/29 12:39:35;;;;;;;7.90;5.30;;;;;;;;;;5135363;27;20530;-67
2022/06/29 12:42:02;;;;;;;6.97;6.37;;;;;;;;;;5134934;27;20441;-67
2022/06/29 12:44:31;;;;;;;6.40;5.90;;;;;;;;;;5134718;27;20436;-67
2022/06/29 12:46:58;;;;;;;7.70;5.80;;;;;;;;;;5135017;27;21037;-68
2022/06/29 12:49:26;;;;;;;6.90;6.20;;;;;;;;;;5134800;27;20530;-67
2022/06/29 12:51:53;;;;;;;6.80;5.73;;;;;;;;;;5135567;27;20419;-68
2022/06/29 12:54:20;;;;;;;6.80;5.70;;;;;;;;;;5134733;27;20497;-68
2022/06/29 12:56:48;;;;;;;7.57;5.80;;;;;;;;;;5134931;27;20940;-67
2022/06/29 12:59:16;;;;;;;13.43;7.83;;;;;;;;;;5134845;27;20439;-70
2022/06/29 13:01:47;;;;;;;10.73;7.07;;;;;;;;;;5135534;27;20410;-68
2022/06/29 13:04:14;;;;;;;15.83;7.57;;;;;;;;;;5135154;27;20767;-68
2022/06/29 13:06:41;;;;;;;11.77;6.87;;;;;;;;;;5134563;27;20835;-68
2022/06/29 13:09:09;;;;;;;7.93;6.40;;;;;;;;;;5134772;27;20499;-68
2022/06/29 13:11:36;;;;;;;6.40;5.80;;;;;;;;;;5134992;27;20444;-68
2022/06/29 13:14:03;;;;;;;6.70;6.20;;;;;;;;;;5134597;27;20436;-68
2022/06/29 13:16:31;;;;;;;7.23;5.90;;;;;;;;;;5132895;27;20786;-68
2022/06/29 13:18:59;;;;;;;6.10;5.60;;;;;;;;;;5134143;27;20530;-68
2022/06/29 13:21:27;;;;;;;7.80;6.50;;;;;;;;;;5133755;27;20453;-68
2022/06/29 13:23:54;;;;;;;5.97;5.50;;;;;;;;;;5134692;27;20439;-68
2022/06/29 13:26:21;;;;;;;7.37;6.33;;;;;;;;;;5134626;27;20493;-68
2022/06/29 13:28:48;;;;;;;6.73;6.23;;;;;;;;;;5133719;27;20834;-68
2022/06/29 13:31:16;;;;;;;6.70;6.13;;;;;;;;;;5134408;28;20826;-68
2022/06/29 13:33:43;;;;;;;7.10;6.50;;;;;;;;;;5134184;28;20530;-68
2022/06/29 13:36:12;;;;;;;7.57;6.90;;;;;;;;;;5134414;28;20796;-69
2022/06/29 13:38:39;;;;;;;6.53;5.97;;;;;;;;;;5135141;28;20414;-68
2022/06/29 13:41:07;;;;;;;6.97;6.27;;;;;;;;;;5134123;28;20440;-69
2022/06/29 13:43:34;;;;;;;6.93;6.33;;;;;;;;;;5134444;28;20487;-69
2022/06/29 13:46:01;;;;;;;7.20;6.60;;;;;;;;;;5134583;28;20773;-69
2022/06/29 13:48:29;;;;;;;7.30;6.70;;;;;;;;;;5134040;28;20487;-69
2022/06/29 13:50:56;;;;;;;7.20;6.60;;;;;;;;;;5134524;27;20471;-69
2022/06/29 13:53:25;;;;;;;7.10;6.40;;;;;;;;;;5134323;28;20496;-69
2022/06/29 13:55:52;;;;;;;8.80;8.10;;;;;;;;;;5133829;28;20907;-68
2022/06/29 13:58:19;;;;;;;7.70;7.00;;;;;;;;;;5133912;28;20448;-69
2022/06/29 14:00:47;;;;;;;7.33;6.73;;;;;;;;;;5134172;28;20415;-68
2022/06/29 14:03:14;;;;;;;7.73;7.03;;;;;;;;;;5134674;28;20431;-69
2022/06/29 14:05:41;;;;;;;7.10;6.60;;;;;;;;;;5133621;28;21059;-69
2022/06/29 14:08:09;;;;;;;6.90;6.27;;;;;;;;;;5133862;28;20417;-69
2022/06/29 14:10:37;;;;;;;7.03;6.53;;;;;;;;;;5134500;28;20534;-68
2022/06/29 14:13:05;;;;;;;7.13;6.63;;;;;;;;;;5133811;28;20847;-69
2022/06/29 14:15:32;;;;;;;7.67;6.93;;;;;;;;;;5133644;28;20510;-68
2022/06/29 14:17:59;;;;;;;8.20;7.40;;;;;;;;;;5136135;27;21009;-68
2022/06/29 14:20:27;;;;;;;8.73;8.03;;;;;;;;;;5138500;27;20448;-68
2022/06/29 14:22:54;;;;;;;6.70;6.10;;;;;;;;;;5137697;27;20464;-67
2022/06/29 14:25:22;;;;;;;8.00;7.30;;;;;;;;;;5137536;27;20472;-69
2022/06/29 14:27:51;;;;;;;7.50;6.80;;;;;;;;;;5137721;27;20451;-68
2022/06/29 14:30:18;;;;;;;7.77;7.17;;;;;;;;;;5137722;27;20421;-68
2022/06/29 14:32:45;;;;;;;7.10;6.50;;;;;;;;;;5137560;27;20504;-68
2022/06/29 14:35:13;;;;;;;8.10;7.50;;;;;;;;;;5137678;27;20511;-68
2022/06/29 14:37:40;;;;;;;7.10;6.60;;;;;;;;;;5137250;27;20510;-68
2022/06/29 14:40:08;;;;;;;7.07;6.37;;;;;;;;;;5137504;27;20469;-68
2022/06/29 14:42:36;;;;;;;7.87;7.30;;;;;;;;;;5137388;27;20439;-68
2022/06/29 14:45:04;;;;;;;8.60;7.10;;;;;;;;;;5137371;27;20419;-68
2022/06/29 14:47:32;;;;;;;8.43;7.73;;;;;;;;;;5137509;27;20448;-68
2022/06/29 14:49:59;;;;;;;8.23;7.50;;;;;;;;;;5137160;27;20530;-68
2022/06/29 14:52:27;;;;;;;7.63;7.10;;;;;;;;;;5136913;27;20444;-68
2022/06/29 14:54:55;;;;;;;8.90;8.00;;;;;;;;;;5137177;27;20455;-68
2022/06/29 14:57:23;;;;;;;7.57;6.97;;;;;;;;;;5136645;27;20446;-68
2022/06/29 14:59:51;;;;;;;7.97;7.20;;;;;;;;;;5137238;27;20769;-69
2022/06/29 15:02:19;;;;;;;7.90;7.30;;;;;;;;;;5136081;27;20422;-68
2022/06/29 15:04:47;;;;;;;7.90;7.30;;;;;;;;;;5137232;27;20469;-69
2022/06/29 15:07:14;;;;;;;7.27;6.77;;;;;;;;;;5136640;27;20521;-68
2022/06/29 15:09:41;;;;;;;7.83;7.13;;;;;;;;;;5136846;27;20405;-69
2022/06/29 15:12:09;;;;;;;8.40;7.70;;;;;;;;;;5136683;27;20940;-69
2022/06/29 15:14:36;;;;;;;8.10;7.30;;;;;;;;;;5136458;27;20479;-68
2022/06/29 15:17:04;;;;;;;7.67;7.10;;;;;;;;;;5136165;27;20938;-68
2022/06/29 15:19:32;;;;;;;7.97;7.33;;;;;;;;;;5136569;27;20540;-69
2022/06/29 15:22:00;;;;;;;8.07;7.27;;;;;;;;;;5136581;27;20504;-68